sensor_id;sensor_type;location;lat;lon;timestamp;P1;durP1;ratioP1;P2;durP2;ratioP2
5133;SDS011;2585;48.696;10.066;2023-04-25T00:01:23;4.20;;;3.30;;
5133;SDS011;2585;48.696;10.066;2023-04-25T00:03:50;6.43;;;2.97;;
5133;SDS011;2585;48.696;10.066;2023-04-25T00:06:18;5.97;;;3.50;;
5133;SDS011;2585;48.696;10.066;2023-04-25T00:08:44;3.80;;;3.00;;
5133;SDS011;2585;48.696;10.066;2023-04-25T00:11:11;3.40;;;2.90;;
5133;SDS011;2585;48.696;10.066;2023-04-25T00:13:38;6.00;;;3.40;;
5133;SDS011;2585;48.696;10.066;2023-04-25T00:16:07;4.20;;;3.00;;
5133;SDS011;2585;48.696;10.066;2023-04-25T00:18:34;4.93;;;3.20;;
5133;SDS011;2585;48.696;10.066;2023-04-25T00:21:02;6.00;;;2.90;;
5133;SDS011;2585;48.696;10.066;2023-04-25T00:23:29;3.80;;;2.93;;
5133;SDS011;2585;48.696;10.066;2023-04-25T00:25:55;5.53;;;2.47;;
5133;SDS011;2585;48.696;10.066;2023-04-25T00:28:22;2.87;;;2.50;;
5133;SDS011;2585;48.696;10.066;2023-04-25T00:30:49;6.23;;;2.80;;
5133;SDS011;2585;48.696;10.066;2023-04-25T00:33:16;5.20;;;3.10;;
5133;SDS011;2585;48.696;10.066;2023-04-25T00:35:43;4.07;;;2.83;;
5133;SDS011;2585;48.696;10.066;2023-04-25T00:38:09;3.93;;;2.90;;
5133;SDS011;2585;48.696;10.066;2023-04-25T00:40:36;3.43;;;2.80;;
5133;SDS011;2585;48.696;10.066;2023-04-25T00:43:03;5.87;;;2.60;;
5133;SDS011;2585;48.696;10.066;2023-04-25T00:45:30;9.17;;;2.60;;
5133;SDS011;2585;48.696;10.066;2023-04-25T00:47:57;8.77;;;2.80;;
5133;SDS011;2585;48.696;10.066;2023-04-25T00:50:24;3.00;;;2.60;;
5133;SDS011;2585;48.696;10.066;2023-04-25T00:52:51;5.17;;;3.23;;
5133;SDS011;2585;48.696;10.066;2023-04-25T00:55:18;3.80;;;2.80;;
5133;SDS011;2585;48.696;10.066;2023-04-25T00:57:46;2.73;;;2.40;;
5133;SDS011;2585;48.696;10.066;2023-04-25T01:00:13;4.53;;;2.80;;
5133;SDS011;2585;48.696;10.066;2023-04-25T01:02:40;3.60;;;2.60;;
5133;SDS011;2585;48.696;10.066;2023-04-25T01:05:11;5.20;;;2.90;;
5133;SDS011;2585;48.696;10.066;2023-04-25T01:07:38;4.13;;;2.90;;
5133;SDS011;2585;48.696;10.066;2023-04-25T01:10:05;3.80;;;2.23;;
5133;SDS011;2585;48.696;10.066;2023-04-25T01:12:33;4.03;;;2.20;;
5133;SDS011;2585;48.696;10.066;2023-04-25T01:14:59;2.90;;;2.43;;
5133;SDS011;2585;48.696;10.066;2023-04-25T01:17:27;3.50;;;2.33;;
5133;SDS011;2585;48.696;10.066;2023-04-25T01:19:55;4.30;;;2.43;;
5133;SDS011;2585;48.696;10.066;2023-04-25T01:22:22;3.13;;;2.43;;
5133;SDS011;2585;48.696;10.066;2023-04-25T01:24:49;5.40;;;2.10;;
5133;SDS011;2585;48.696;10.066;2023-04-25T01:27:16;3.70;;;2.90;;
5133;SDS011;2585;48.696;10.066;2023-04-25T01:29:44;5.80;;;3.10;;
5133;SDS011;2585;48.696;10.066;2023-04-25T01:32:11;4.83;;;3.40;;
5133;SDS011;2585;48.696;10.066;2023-04-25T01:34:40;7.33;;;3.67;;
5133;SDS011;2585;48.696;10.066;2023-04-25T01:37:06;3.10;;;2.80;;
5133;SDS011;2585;48.696;10.066;2023-04-25T01:39:33;4.30;;;3.30;;
5133;SDS011;2585;48.696;10.066;2023-04-25T01:42:00;5.17;;;3.20;;
5133;SDS011;2585;48.696;10.066;2023-04-25T01:44:27;5.30;;;4.20;;
5133;SDS011;2585;48.696;10.066;2023-04-25T01:46:54;5.30;;;4.80;;
5133;SDS011;2585;48.696;10.066;2023-04-25T01:49:21;7.23;;;3.77;;
5133;SDS011;2585;48.696;10.066;2023-04-25T01:51:48;5.67;;;3.20;;
5133;SDS011;2585;48.696;10.066;2023-04-25T01:54:15;4.07;;;2.87;;
5133;SDS011;2585;48.696;10.066;2023-04-25T01:56:41;5.40;;;3.23;;
5133;SDS011;2585;48.696;10.066;2023-04-25T01:59:08;5.70;;;3.10;;
5133;SDS011;2585;48.696;10.066;2023-04-25T02:01:35;5.13;;;2.87;;
5133;SDS011;2585;48.696;10.066;2023-04-25T02:04:02;7.33;;;3.20;;
5133;SDS011;2585;48.696;10.066;2023-04-25T02:06:29;7.30;;;3.97;;
5133;SDS011;2585;48.696;10.066;2023-04-25T02:08:57;5.27;;;2.90;;
5133;SDS011;2585;48.696;10.066;2023-04-25T02:11:23;5.17;;;3.60;;
5133;SDS011;2585;48.696;10.066;2023-04-25T02:13:50;4.50;;;3.43;;
5133;SDS011;2585;48.696;10.066;2023-04-25T02:16:17;3.27;;;2.97;;
5133;SDS011;2585;48.696;10.066;2023-04-25T02:18:45;2.73;;;2.50;;
5133;SDS011;2585;48.696;10.066;2023-04-25T02:21:13;9.70;;;2.77;;
5133;SDS011;2585;48.696;10.066;2023-04-25T02:23:39;3.60;;;3.10;;
5133;SDS011;2585;48.696;10.066;2023-04-25T02:26:06;5.10;;;3.23;;
5133;SDS011;2585;48.696;10.066;2023-04-25T02:28:33;6.00;;;2.60;;
5133;SDS011;2585;48.696;10.066;2023-04-25T02:31:00;5.90;;;2.60;;
5133;SDS011;2585;48.696;10.066;2023-04-25T02:33:27;3.63;;;2.40;;
5133;SDS011;2585;48.696;10.066;2023-04-25T02:35:53;4.60;;;2.57;;
5133;SDS011;2585;48.696;10.066;2023-04-25T02:38:20;2.50;;;2.30;;
5133;SDS011;2585;48.696;10.066;2023-04-25T02:40:47;3.50;;;2.80;;
5133;SDS011;2585;48.696;10.066;2023-04-25T02:43:14;3.80;;;2.53;;
5133;SDS011;2585;48.696;10.066;2023-04-25T02:45:42;4.23;;;2.30;;
5133;SDS011;2585;48.696;10.066;2023-04-25T02:48:08;3.37;;;2.77;;
5133;SDS011;2585;48.696;10.066;2023-04-25T02:50:35;6.37;;;2.60;;
5133;SDS011;2585;48.696;10.066;2023-04-25T02:53:02;4.50;;;3.00;;
5133;SDS011;2585;48.696;10.066;2023-04-25T02:55:29;3.53;;;2.90;;
5133;SDS011;2585;48.696;10.066;2023-04-25T02:57:56;3.40;;;2.63;;
5133;SDS011;2585;48.696;10.066;2023-04-25T03:00:22;5.53;;;3.13;;
5133;SDS011;2585;48.696;10.066;2023-04-25T03:02:50;3.63;;;3.20;;
5133;SDS011;2585;48.696;10.066;2023-04-25T03:05:17;6.40;;;3.07;;
5133;SDS011;2585;48.696;10.066;2023-04-25T03:07:44;2.77;;;2.57;;
5133;SDS011;2585;48.696;10.066;2023-04-25T03:10:11;2.60;;;2.40;;
5133;SDS011;2585;48.696;10.066;2023-04-25T03:12:38;3.40;;;2.43;;
5133;SDS011;2585;48.696;10.066;2023-04-25T03:15:05;5.20;;;2.87;;
5133;SDS011;2585;48.696;10.066;2023-04-25T03:17:32;5.83;;;3.00;;
5133;SDS011;2585;48.696;10.066;2023-04-25T03:19:59;2.40;;;2.13;;
5133;SDS011;2585;48.696;10.066;2023-04-25T03:22:27;3.40;;;2.70;;
5133;SDS011;2585;48.696;10.066;2023-04-25T03:24:54;5.07;;;2.60;;
5133;SDS011;2585;48.696;10.066;2023-04-25T03:27:20;3.90;;;2.63;;
5133;SDS011;2585;48.696;10.066;2023-04-25T03:29:47;3.50;;;2.50;;
5133;SDS011;2585;48.696;10.066;2023-04-25T03:32:14;2.90;;;2.50;;
5133;SDS011;2585;48.696;10.066;2023-04-25T03:34:41;3.93;;;2.97;;
5133;SDS011;2585;48.696;10.066;2023-04-25T03:37:07;3.23;;;2.83;;
5133;SDS011;2585;48.696;10.066;2023-04-25T03:39:34;4.72;;;2.90;;
5133;SDS011;2585;48.696;10.066;2023-04-25T03:42:01;3.50;;;3.10;;
5133;SDS011;2585;48.696;10.066;2023-04-25T03:44:29;5.00;;;2.90;;
5133;SDS011;2585;48.696;10.066;2023-04-25T03:46:56;6.47;;;3.00;;
5133;SDS011;2585;48.696;10.066;2023-04-25T03:49:22;7.87;;;2.73;;
5133;SDS011;2585;48.696;10.066;2023-04-25T03:51:50;3.55;;;2.90;;
5133;SDS011;2585;48.696;10.066;2023-04-25T03:54:17;5.10;;;3.47;;
5133;SDS011;2585;48.696;10.066;2023-04-25T03:56:43;4.35;;;3.88;;
5133;SDS011;2585;48.696;10.066;2023-04-25T03:59:10;4.40;;;3.30;;
5133;SDS011;2585;48.696;10.066;2023-04-25T04:01:37;5.10;;;3.17;;
5133;SDS011;2585;48.696;10.066;2023-04-25T04:04:04;3.70;;;3.30;;
5133;SDS011;2585;48.696;10.066;2023-04-25T04:06:31;6.43;;;3.57;;
5133;SDS011;2585;48.696;10.066;2023-04-25T04:08:58;4.67;;;3.53;;
5133;SDS011;2585;48.696;10.066;2023-04-25T04:11:25;5.03;;;3.23;;
5133;SDS011;2585;48.696;10.066;2023-04-25T04:13:52;3.85;;;3.20;;
5133;SDS011;2585;48.696;10.066;2023-04-25T04:16:18;3.85;;;2.90;;
5133;SDS011;2585;48.696;10.066;2023-04-25T04:18:45;5.63;;;3.90;;
5133;SDS011;2585;48.696;10.066;2023-04-25T04:21:12;6.20;;;3.43;;
5133;SDS011;2585;48.696;10.066;2023-04-25T04:23:39;5.85;;;3.80;;
5133;SDS011;2585;48.696;10.066;2023-04-25T04:26:06;4.60;;;3.45;;
5133;SDS011;2585;48.696;10.066;2023-04-25T04:28:34;5.60;;;3.60;;
5133;SDS011;2585;48.696;10.066;2023-04-25T04:31:01;8.57;;;4.30;;
5133;SDS011;2585;48.696;10.066;2023-04-25T04:33:29;6.25;;;4.55;;
5133;SDS011;2585;48.696;10.066;2023-04-25T04:35:57;6.95;;;3.92;;
5133;SDS011;2585;48.696;10.066;2023-04-25T04:38:24;4.88;;;4.03;;
5133;SDS011;2585;48.696;10.066;2023-04-25T04:40:51;5.43;;;3.85;;
5133;SDS011;2585;48.696;10.066;2023-04-25T04:43:18;8.07;;;4.90;;
5133;SDS011;2585;48.696;10.066;2023-04-25T04:45:45;5.78;;;3.60;;
5133;SDS011;2585;48.696;10.066;2023-04-25T04:48:12;4.07;;;3.45;;
5133;SDS011;2585;48.696;10.066;2023-04-25T04:50:40;4.30;;;3.63;;
5133;SDS011;2585;48.696;10.066;2023-04-25T04:53:08;8.77;;;4.28;;
5133;SDS011;2585;48.696;10.066;2023-04-25T04:55:35;4.03;;;3.67;;
5133;SDS011;2585;48.696;10.066;2023-04-25T04:58:02;7.43;;;4.72;;
5133;SDS011;2585;48.696;10.066;2023-04-25T05:00:29;8.32;;;4.75;;
5133;SDS011;2585;48.696;10.066;2023-04-25T05:02:56;19.50;;;10.98;;
5133;SDS011;2585;48.696;10.066;2023-04-25T05:05:23;18.50;;;9.33;;
5133;SDS011;2585;48.696;10.066;2023-04-25T05:07:50;6.77;;;5.43;;
5133;SDS011;2585;48.696;10.066;2023-04-25T05:10:18;11.03;;;6.37;;
5133;SDS011;2585;48.696;10.066;2023-04-25T05:12:45;9.03;;;5.57;;
5133;SDS011;2585;48.696;10.066;2023-04-25T05:15:12;15.53;;;5.67;;
5133;SDS011;2585;48.696;10.066;2023-04-25T05:17:39;21.33;;;8.47;;
5133;SDS011;2585;48.696;10.066;2023-04-25T05:20:07;12.80;;;8.30;;
5133;SDS011;2585;48.696;10.066;2023-04-25T05:22:35;13.40;;;8.50;;
5133;SDS011;2585;48.696;10.066;2023-04-25T05:25:02;11.40;;;8.00;;
5133;SDS011;2585;48.696;10.066;2023-04-25T05:27:29;9.80;;;6.50;;
5133;SDS011;2585;48.696;10.066;2023-04-25T05:29:56;11.50;;;6.90;;
5133;SDS011;2585;48.696;10.066;2023-04-25T05:32:23;13.93;;;8.30;;
5133;SDS011;2585;48.696;10.066;2023-04-25T05:34:51;15.63;;;8.00;;
5133;SDS011;2585;48.696;10.066;2023-04-25T05:37:18;13.33;;;6.80;;
5133;SDS011;2585;48.696;10.066;2023-04-25T05:39:45;8.13;;;5.70;;
5133;SDS011;2585;48.696;10.066;2023-04-25T05:42:11;8.03;;;5.80;;
5133;SDS011;2585;48.696;10.066;2023-04-25T05:44:38;7.60;;;4.83;;
5133;SDS011;2585;48.696;10.066;2023-04-25T05:47:05;8.00;;;4.67;;
5133;SDS011;2585;48.696;10.066;2023-04-25T05:49:32;12.50;;;6.47;;
5133;SDS011;2585;48.696;10.066;2023-04-25T05:51:59;8.70;;;5.50;;
5133;SDS011;2585;48.696;10.066;2023-04-25T05:54:26;8.10;;;6.37;;
5133;SDS011;2585;48.696;10.066;2023-04-25T05:56:53;11.03;;;5.53;;
5133;SDS011;2585;48.696;10.066;2023-04-25T05:59:20;8.43;;;4.83;;
5133;SDS011;2585;48.696;10.066;2023-04-25T06:01:46;7.80;;;4.60;;
5133;SDS011;2585;48.696;10.066;2023-04-25T06:04:13;6.10;;;4.90;;
5133;SDS011;2585;48.696;10.066;2023-04-25T06:06:40;5.70;;;4.90;;
5133;SDS011;2585;48.696;10.066;2023-04-25T06:09:07;8.37;;;5.50;;
5133;SDS011;2585;48.696;10.066;2023-04-25T06:11:34;8.20;;;5.27;;
5133;SDS011;2585;48.696;10.066;2023-04-25T06:14:01;9.93;;;5.27;;
5133;SDS011;2585;48.696;10.066;2023-04-25T06:16:28;14.07;;;5.20;;
5133;SDS011;2585;48.696;10.066;2023-04-25T06:18:55;7.73;;;6.00;;
5133;SDS011;2585;48.696;10.066;2023-04-25T06:21:21;6.90;;;4.73;;
5133;SDS011;2585;48.696;10.066;2023-04-25T06:23:48;6.70;;;4.20;;
5133;SDS011;2585;48.696;10.066;2023-04-25T06:26:16;11.17;;;3.83;;
5133;SDS011;2585;48.696;10.066;2023-04-25T06:28:42;7.17;;;4.20;;
5133;SDS011;2585;48.696;10.066;2023-04-25T06:31:09;6.43;;;3.17;;
5133;SDS011;2585;48.696;10.066;2023-04-25T06:33:36;7.63;;;3.67;;
5133;SDS011;2585;48.696;10.066;2023-04-25T06:36:03;6.23;;;3.50;;
5133;SDS011;2585;48.696;10.066;2023-04-25T06:38:30;5.70;;;3.83;;
5133;SDS011;2585;48.696;10.066;2023-04-25T06:40:57;6.70;;;3.67;;
5133;SDS011;2585;48.696;10.066;2023-04-25T06:43:24;6.83;;;3.57;;
5133;SDS011;2585;48.696;10.066;2023-04-25T06:45:50;4.67;;;3.33;;
5133;SDS011;2585;48.696;10.066;2023-04-25T06:48:17;4.00;;;3.10;;
5133;SDS011;2585;48.696;10.066;2023-04-25T06:50:44;11.07;;;4.47;;
5133;SDS011;2585;48.696;10.066;2023-04-25T06:53:11;5.10;;;3.43;;
5133;SDS011;2585;48.696;10.066;2023-04-25T06:55:38;7.67;;;3.63;;
5133;SDS011;2585;48.696;10.066;2023-04-25T06:58:05;8.47;;;3.70;;
5133;SDS011;2585;48.696;10.066;2023-04-25T07:00:31;4.73;;;3.70;;
5133;SDS011;2585;48.696;10.066;2023-04-25T07:02:59;8.70;;;3.20;;
5133;SDS011;2585;48.696;10.066;2023-04-25T07:05:27;4.90;;;3.40;;
5133;SDS011;2585;48.696;10.066;2023-04-25T07:07:53;8.17;;;4.00;;
5133;SDS011;2585;48.696;10.066;2023-04-25T07:10:21;6.57;;;3.50;;
5133;SDS011;2585;48.696;10.066;2023-04-25T07:12:47;8.13;;;3.70;;
5133;SDS011;2585;48.696;10.066;2023-04-25T07:15:14;4.77;;;3.83;;
5133;SDS011;2585;48.696;10.066;2023-04-25T07:17:41;5.77;;;2.97;;
5133;SDS011;2585;48.696;10.066;2023-04-25T07:20:09;7.70;;;3.43;;
5133;SDS011;2585;48.696;10.066;2023-04-25T07:22:36;3.53;;;3.03;;
5133;SDS011;2585;48.696;10.066;2023-04-25T07:25:03;3.37;;;2.93;;
5133;SDS011;2585;48.696;10.066;2023-04-25T07:27:33;5.53;;;3.20;;
5133;SDS011;2585;48.696;10.066;2023-04-25T07:30:00;6.60;;;2.60;;
5133;SDS011;2585;48.696;10.066;2023-04-25T07:32:27;8.30;;;2.93;;
5133;SDS011;2585;48.696;10.066;2023-04-25T07:34:53;9.17;;;4.13;;
5133;SDS011;2585;48.696;10.066;2023-04-25T07:37:20;4.80;;;3.77;;
5133;SDS011;2585;48.696;10.066;2023-04-25T07:39:47;4.70;;;3.40;;
5133;SDS011;2585;48.696;10.066;2023-04-25T07:42:14;7.90;;;3.50;;
5133;SDS011;2585;48.696;10.066;2023-04-25T07:44:41;8.00;;;3.60;;
5133;SDS011;2585;48.696;10.066;2023-04-25T07:47:09;4.20;;;3.10;;
5133;SDS011;2585;48.696;10.066;2023-04-25T07:49:36;6.03;;;3.67;;
5133;SDS011;2585;48.696;10.066;2023-04-25T07:52:04;3.53;;;3.23;;
5133;SDS011;2585;48.696;10.066;2023-04-25T07:54:32;3.47;;;3.07;;
5133;SDS011;2585;48.696;10.066;2023-04-25T07:56:59;4.00;;;3.20;;
5133;SDS011;2585;48.696;10.066;2023-04-25T07:59:26;6.13;;;3.40;;
5133;SDS011;2585;48.696;10.066;2023-04-25T08:01:55;6.23;;;3.53;;
5133;SDS011;2585;48.696;10.066;2023-04-25T08:04:23;4.73;;;3.07;;
5133;SDS011;2585;48.696;10.066;2023-04-25T08:06:52;10.20;;;3.30;;
5133;SDS011;2585;48.696;10.066;2023-04-25T08:09:20;5.13;;;3.13;;
5133;SDS011;2585;48.696;10.066;2023-04-25T08:11:47;6.97;;;3.30;;
5133;SDS011;2585;48.696;10.066;2023-04-25T08:14:14;9.30;;;3.70;;
5133;SDS011;2585;48.696;10.066;2023-04-25T08:16:41;5.13;;;3.10;;
5133;SDS011;2585;48.696;10.066;2023-04-25T08:19:08;8.20;;;3.63;;
5133;SDS011;2585;48.696;10.066;2023-04-25T08:21:36;2.90;;;2.63;;
5133;SDS011;2585;48.696;10.066;2023-04-25T08:24:03;8.77;;;3.60;;
5133;SDS011;2585;48.696;10.066;2023-04-25T08:26:30;5.00;;;3.00;;
5133;SDS011;2585;48.696;10.066;2023-04-25T08:28:57;6.37;;;3.90;;
5133;SDS011;2585;48.696;10.066;2023-04-25T08:31:23;3.27;;;2.60;;
5133;SDS011;2585;48.696;10.066;2023-04-25T08:33:50;5.93;;;2.90;;
5133;SDS011;2585;48.696;10.066;2023-04-25T08:36:18;5.50;;;2.97;;
5133;SDS011;2585;48.696;10.066;2023-04-25T08:39:03;3.03;;;2.70;;
5133;SDS011;2585;48.696;10.066;2023-04-25T08:41:30;4.07;;;3.10;;
5133;SDS011;2585;48.696;10.066;2023-04-25T08:43:57;7.37;;;3.57;;
5133;SDS011;2585;48.696;10.066;2023-04-25T08:46:26;3.23;;;2.70;;
5133;SDS011;2585;48.696;10.066;2023-04-25T08:48:54;8.80;;;3.57;;
5133;SDS011;2585;48.696;10.066;2023-04-25T08:51:26;4.33;;;2.83;;
5133;SDS011;2585;48.696;10.066;2023-04-25T08:53:57;5.47;;;2.60;;
5133;SDS011;2585;48.696;10.066;2023-04-25T08:56:48;6.77;;;3.60;;
5133;SDS011;2585;48.696;10.066;2023-04-25T08:59:15;5.37;;;3.30;;
5133;SDS011;2585;48.696;10.066;2023-04-25T09:01:43;5.57;;;2.70;;
5133;SDS011;2585;48.696;10.066;2023-04-25T09:04:11;2.77;;;2.53;;
5133;SDS011;2585;48.696;10.066;2023-04-25T09:06:39;3.40;;;2.80;;
5133;SDS011;2585;48.696;10.066;2023-04-25T09:09:06;3.50;;;3.20;;
5133;SDS011;2585;48.696;10.066;2023-04-25T09:11:35;5.53;;;2.80;;
5133;SDS011;2585;48.696;10.066;2023-04-25T09:19:22;3.23;;;2.90;;
5133;SDS011;2585;48.696;10.066;2023-04-25T09:22:06;5.70;;;3.57;;
5133;SDS011;2585;48.696;10.066;2023-04-25T09:24:38;5.17;;;3.50;;
5133;SDS011;2585;48.696;10.066;2023-04-25T09:27:07;4.93;;;4.47;;
5133;SDS011;2585;48.696;10.066;2023-04-25T09:29:38;4.03;;;3.63;;
5133;SDS011;2585;48.696;10.066;2023-04-25T09:34:43;4.10;;;3.40;;
5133;SDS011;2585;48.696;10.066;2023-04-25T09:40:07;4.60;;;3.63;;
5133;SDS011;2585;48.696;10.066;2023-04-25T09:42:36;5.20;;;3.80;;
5133;SDS011;2585;48.696;10.066;2023-04-25T09:45:07;4.20;;;3.80;;
5133;SDS011;2585;48.696;10.066;2023-04-25T09:47:38;3.57;;;3.27;;
5133;SDS011;2585;48.696;10.066;2023-04-25T09:50:16;4.03;;;3.63;;
5133;SDS011;2585;48.696;10.066;2023-04-25T09:52:45;3.90;;;3.50;;
5133;SDS011;2585;48.696;10.066;2023-04-25T09:55:12;3.73;;;3.43;;
5133;SDS011;2585;48.696;10.066;2023-04-25T09:57:38;3.77;;;3.37;;
5133;SDS011;2585;48.696;10.066;2023-04-25T10:00:06;4.27;;;3.67;;
5133;SDS011;2585;48.696;10.066;2023-04-25T10:02:38;3.90;;;3.47;;
5133;SDS011;2585;48.696;10.066;2023-04-25T10:05:08;3.57;;;3.27;;
5133;SDS011;2585;48.696;10.066;2023-04-25T10:07:37;3.63;;;3.30;;
5133;SDS011;2585;48.696;10.066;2023-04-25T10:10:05;3.30;;;3.00;;
5133;SDS011;2585;48.696;10.066;2023-04-25T10:12:32;2.97;;;2.77;;
5133;SDS011;2585;48.696;10.066;2023-04-25T10:15:00;6.23;;;2.97;;
5133;SDS011;2585;48.696;10.066;2023-04-25T10:17:28;5.93;;;3.20;;
5133;SDS011;2585;48.696;10.066;2023-04-25T10:19:56;4.00;;;3.57;;
5133;SDS011;2585;48.696;10.066;2023-04-25T10:22:26;4.53;;;2.67;;
5133;SDS011;2585;48.696;10.066;2023-04-25T10:24:59;3.30;;;2.57;;
5133;SDS011;2585;48.696;10.066;2023-04-25T10:27:27;3.30;;;2.97;;
5133;SDS011;2585;48.696;10.066;2023-04-25T10:30:04;7.20;;;2.83;;
5133;SDS011;2585;48.696;10.066;2023-04-25T10:32:37;7.53;;;3.23;;
5133;SDS011;2585;48.696;10.066;2023-04-25T10:35:17;2.90;;;2.70;;
5133;SDS011;2585;48.696;10.066;2023-04-25T10:40:36;3.10;;;2.80;;
5133;SDS011;2585;48.696;10.066;2023-04-25T10:45:54;3.20;;;2.90;;
5133;SDS011;2585;48.696;10.066;2023-04-25T10:48:43;3.43;;;3.10;;
5133;SDS011;2585;48.696;10.066;2023-04-25T10:51:22;4.20;;;2.70;;
5133;SDS011;2585;48.696;10.066;2023-04-25T10:54:03;5.73;;;3.20;;
5133;SDS011;2585;48.696;10.066;2023-04-25T10:56:38;2.63;;;2.10;;
5133;SDS011;2585;48.696;10.066;2023-04-25T11:01:45;1.70;;;1.60;;
5133;SDS011;2585;48.696;10.066;2023-04-25T11:04:20;3.67;;;1.70;;
5133;SDS011;2585;48.696;10.066;2023-04-25T11:09:34;1.40;;;1.30;;
5133;SDS011;2585;48.696;10.066;2023-04-25T11:12:02;1.50;;;1.30;;
5133;SDS011;2585;48.696;10.066;2023-04-25T11:14:29;3.53;;;2.10;;
5133;SDS011;2585;48.696;10.066;2023-04-25T11:16:57;1.83;;;1.73;;
5133;SDS011;2585;48.696;10.066;2023-04-25T11:19:26;1.50;;;1.40;;
5133;SDS011;2585;48.696;10.066;2023-04-25T11:22:00;2.57;;;1.90;;
5133;SDS011;2585;48.696;10.066;2023-04-25T11:24:32;2.97;;;2.27;;
5133;SDS011;2585;48.696;10.066;2023-04-25T11:27:01;3.37;;;1.80;;
5133;SDS011;2585;48.696;10.066;2023-04-25T11:29:29;1.50;;;1.40;;
5133;SDS011;2585;48.696;10.066;2023-04-25T11:31:57;1.90;;;1.40;;
5133;SDS011;2585;48.696;10.066;2023-04-25T11:34:25;1.83;;;1.67;;
5133;SDS011;2585;48.696;10.066;2023-04-25T11:36:52;2.80;;;1.83;;
5133;SDS011;2585;48.696;10.066;2023-04-25T11:39:19;7.43;;;4.33;;
5133;SDS011;2585;48.696;10.066;2023-04-25T11:41:47;6.97;;;4.40;;
5133;SDS011;2585;48.696;10.066;2023-04-25T11:44:17;6.80;;;4.70;;
5133;SDS011;2585;48.696;10.066;2023-04-25T11:46:45;13.70;;;5.27;;
5133;SDS011;2585;48.696;10.066;2023-04-25T11:49:15;8.60;;;4.70;;
5133;SDS011;2585;48.696;10.066;2023-04-25T11:51:45;6.30;;;4.70;;
5133;SDS011;2585;48.696;10.066;2023-04-25T11:54:13;4.47;;;3.30;;
5133;SDS011;2585;48.696;10.066;2023-04-25T11:56:41;4.17;;;3.30;;
5133;SDS011;2585;48.696;10.066;2023-04-25T11:59:09;4.70;;;3.17;;
5133;SDS011;2585;48.696;10.066;2023-04-25T12:01:38;3.10;;;2.43;;
5133;SDS011;2585;48.696;10.066;2023-04-25T12:06:41;4.33;;;2.50;;
5133;SDS011;2585;48.696;10.066;2023-04-25T12:09:09;1.97;;;1.70;;
5133;SDS011;2585;48.696;10.066;2023-04-25T12:11:47;1.70;;;1.60;;
5133;SDS011;2585;48.696;10.066;2023-04-25T12:14:21;1.43;;;1.33;;
5133;SDS011;2585;48.696;10.066;2023-04-25T12:16:57;1.37;;;1.27;;
5133;SDS011;2585;48.696;10.066;2023-04-25T12:19:25;2.30;;;1.50;;
5133;SDS011;2585;48.696;10.066;2023-04-25T12:21:52;1.40;;;1.30;;
5133;SDS011;2585;48.696;10.066;2023-04-25T12:24:25;1.53;;;1.43;;
5133;SDS011;2585;48.696;10.066;2023-04-25T12:26:59;1.83;;;1.27;;
5133;SDS011;2585;48.696;10.066;2023-04-25T12:29:32;3.90;;;1.53;;
5133;SDS011;2585;48.696;10.066;2023-04-25T12:32:14;1.53;;;1.43;;
5133;SDS011;2585;48.696;10.066;2023-04-25T12:34:41;2.03;;;1.80;;
5133;SDS011;2585;48.696;10.066;2023-04-25T12:37:08;2.30;;;1.87;;
5133;SDS011;2585;48.696;10.066;2023-04-25T12:39:35;2.70;;;2.10;;
5133;SDS011;2585;48.696;10.066;2023-04-25T12:42:02;3.20;;;2.90;;
5133;SDS011;2585;48.696;10.066;2023-04-25T12:44:34;2.77;;;2.53;;
5133;SDS011;2585;48.696;10.066;2023-04-25T12:47:01;4.20;;;3.07;;
5133;SDS011;2585;48.696;10.066;2023-04-25T12:49:29;4.57;;;3.30;;
5133;SDS011;2585;48.696;10.066;2023-04-25T12:51:56;4.73;;;3.30;;
5133;SDS011;2585;48.696;10.066;2023-04-25T12:54:23;5.60;;;3.20;;
5133;SDS011;2585;48.696;10.066;2023-04-25T12:56:50;3.20;;;2.70;;
5133;SDS011;2585;48.696;10.066;2023-04-25T12:59:17;4.33;;;3.50;;
5133;SDS011;2585;48.696;10.066;2023-04-25T13:01:46;5.70;;;3.53;;
5133;SDS011;2585;48.696;10.066;2023-04-25T13:04:13;4.93;;;3.47;;
5133;SDS011;2585;48.696;10.066;2023-04-25T13:06:40;4.40;;;2.90;;
5133;SDS011;2585;48.696;10.066;2023-04-25T13:09:06;5.10;;;4.00;;
5133;SDS011;2585;48.696;10.066;2023-04-25T13:11:33;3.93;;;2.77;;
5133;SDS011;2585;48.696;10.066;2023-04-25T13:14:00;3.77;;;2.73;;
5133;SDS011;2585;48.696;10.066;2023-04-25T13:16:27;3.60;;;2.80;;
5133;SDS011;2585;48.696;10.066;2023-04-25T13:18:54;9.30;;;2.77;;
5133;SDS011;2585;48.696;10.066;2023-04-25T13:21:22;3.30;;;2.60;;
5133;SDS011;2585;48.696;10.066;2023-04-25T13:23:49;3.70;;;2.90;;
5133;SDS011;2585;48.696;10.066;2023-04-25T13:26:16;4.10;;;3.17;;
5133;SDS011;2585;48.696;10.066;2023-04-25T13:28:43;5.60;;;3.67;;
5133;SDS011;2585;48.696;10.066;2023-04-25T13:31:11;5.20;;;3.40;;
5133;SDS011;2585;48.696;10.066;2023-04-25T13:33:37;5.20;;;3.63;;
5133;SDS011;2585;48.696;10.066;2023-04-25T13:36:04;4.77;;;3.20;;
5133;SDS011;2585;48.696;10.066;2023-04-25T13:38:31;7.60;;;5.00;;
5133;SDS011;2585;48.696;10.066;2023-04-25T13:40:58;4.27;;;3.07;;
5133;SDS011;2585;48.696;10.066;2023-04-25T13:43:25;3.60;;;3.30;;
5133;SDS011;2585;48.696;10.066;2023-04-25T13:45:52;3.40;;;2.73;;
5133;SDS011;2585;48.696;10.066;2023-04-25T13:48:19;5.03;;;3.40;;
5133;SDS011;2585;48.696;10.066;2023-04-25T13:50:46;4.03;;;3.57;;
5133;SDS011;2585;48.696;10.066;2023-04-25T13:53:13;3.73;;;2.83;;
5133;SDS011;2585;48.696;10.066;2023-04-25T13:55:40;4.63;;;2.80;;
5133;SDS011;2585;48.696;10.066;2023-04-25T13:58:07;3.83;;;2.70;;
5133;SDS011;2585;48.696;10.066;2023-04-25T14:00:36;2.50;;;2.10;;
5133;SDS011;2585;48.696;10.066;2023-04-25T14:03:05;3.20;;;2.60;;
5133;SDS011;2585;48.696;10.066;2023-04-25T14:05:35;3.70;;;3.10;;
5133;SDS011;2585;48.696;10.066;2023-04-25T14:08:07;7.00;;;3.10;;
5133;SDS011;2585;48.696;10.066;2023-04-25T14:10:34;4.53;;;3.60;;
5133;SDS011;2585;48.696;10.066;2023-04-25T14:13:02;4.40;;;3.00;;
5133;SDS011;2585;48.696;10.066;2023-04-25T14:15:33;4.53;;;3.07;;
5133;SDS011;2585;48.696;10.066;2023-04-25T14:18:00;3.70;;;3.30;;
5133;SDS011;2585;48.696;10.066;2023-04-25T14:20:28;7.83;;;3.70;;
5133;SDS011;2585;48.696;10.066;2023-04-25T14:22:55;5.40;;;3.40;;
5133;SDS011;2585;48.696;10.066;2023-04-25T14:25:24;5.43;;;3.43;;
5133;SDS011;2585;48.696;10.066;2023-04-25T14:27:51;4.20;;;3.50;;
5133;SDS011;2585;48.696;10.066;2023-04-25T14:30:18;5.40;;;3.27;;
5133;SDS011;2585;48.696;10.066;2023-04-25T14:32:47;5.60;;;3.20;;
5133;SDS011;2585;48.696;10.066;2023-04-25T14:35:15;10.07;;;3.70;;
5133;SDS011;2585;48.696;10.066;2023-04-25T14:37:42;4.30;;;2.97;;
5133;SDS011;2585;48.696;10.066;2023-04-25T14:40:10;3.63;;;3.07;;
5133;SDS011;2585;48.696;10.066;2023-04-25T14:42:39;3.90;;;3.37;;
5133;SDS011;2585;48.696;10.066;2023-04-25T14:45:06;4.37;;;3.33;;
5133;SDS011;2585;48.696;10.066;2023-04-25T14:47:37;3.57;;;3.17;;
5133;SDS011;2585;48.696;10.066;2023-04-25T14:50:05;4.30;;;3.10;;
5133;SDS011;2585;48.696;10.066;2023-04-25T14:52:32;4.10;;;2.80;;
5133;SDS011;2585;48.696;10.066;2023-04-25T14:54:59;4.80;;;3.33;;
5133;SDS011;2585;48.696;10.066;2023-04-25T14:57:34;5.00;;;3.80;;
5133;SDS011;2585;48.696;10.066;2023-04-25T15:00:01;5.20;;;4.00;;
5133;SDS011;2585;48.696;10.066;2023-04-25T15:02:31;6.00;;;3.50;;
5133;SDS011;2585;48.696;10.066;2023-04-25T15:04:58;6.33;;;3.23;;
5133;SDS011;2585;48.696;10.066;2023-04-25T15:07:25;5.37;;;4.20;;
5133;SDS011;2585;48.696;10.066;2023-04-25T15:09:52;3.60;;;2.93;;
5133;SDS011;2585;48.696;10.066;2023-04-25T15:12:20;5.53;;;3.60;;
5133;SDS011;2585;48.696;10.066;2023-04-25T15:14:46;5.87;;;3.60;;
5133;SDS011;2585;48.696;10.066;2023-04-25T15:17:13;4.70;;;3.20;;
5133;SDS011;2585;48.696;10.066;2023-04-25T15:19:40;5.57;;;3.50;;
5133;SDS011;2585;48.696;10.066;2023-04-25T15:22:07;9.87;;;3.60;;
5133;SDS011;2585;48.696;10.066;2023-04-25T15:24:34;7.60;;;5.33;;
5133;SDS011;2585;48.696;10.066;2023-04-25T15:27:01;5.97;;;4.00;;
5133;SDS011;2585;48.696;10.066;2023-04-25T15:29:29;8.77;;;5.67;;